Flight Track Log - Related Links

Times and Time Zones

All times are in EDT time to prevent confusion due to time zone crossing. See the N147SW flight status page for this flight to view local times or setup timezone preferences in your user account.

Time Position Orientation Groundspeed Altitude Reporting Facility
EDT Latitude Longitude Course Direction KTS MPH feet Rate Location/Type
Wed 05:34:40 PM 26.2406 -80.1064 80° East 128 147 700  Level Miami Center
Wed 05:35:41 PM 26.2503 -80.0442 80° East 207 238 3,000 1,180 Climbing Miami Center
Wed 05:36:42 PM 26.2581 -79.9725 83° East 254 292 3,100 49 Climbing Miami Center
Wed 05:37:43 PM 26.2925 -79.9317 47° Northeast 204 235 3,100 600 Level Miami Center
Wed 05:38:42 PM 26.2975 -79.9900 275° West 221 254 4,300 1,978 Climbing Miami Center
Wed 05:40:42 PM 26.2769 -80.1583 305° West 461 531 9,000 1,567 Climbing Miami Center
Wed 05:41:42 PM 26.3108 -80.2336 297° West 319 367 9,000 1,250 Level Miami Center
Wed 05:42:42 PM 26.3592 -80.3161 303° West 293 337 11,500 2,800 Climbing Miami Center
Wed 05:43:42 PM 26.4053 -80.3869 306° West 304 350 14,600 3,150 Climbing Miami Center
Wed 05:44:42 PM 26.4575 -80.4744 304° West 316 364 17,800 2,700 Climbing Miami Center
Wed 05:45:42 PM 26.5036 -80.5500 304° West 322 371 20,000 1,100 Climbing Miami Center
Wed 05:46:42 PM 26.5697 -80.6614 304° West 370 426 20,000  Level Miami Center
Wed 05:47:42 PM 26.6400 -80.7728 305° West 433 498 20,000  Level Miami Center
Wed 05:48:42 PM 26.7097 -80.8867 304° West 445 512 20,000  Level Miami Center
Wed 05:49:42 PM 26.7778 -81.0006 304° West 445 512 20,000  Level Miami Center
Wed 05:50:42 PM 26.8394 -81.1031 304° West 445 512 20,000  Level Miami Center
Wed 05:51:42 PM 26.9069 -81.2172 304° West 445 512 20,000  Level Miami Center
Wed 05:52:42 PM 26.9825 -81.3433 304° West 445 512 20,000  Level Miami Center
Wed 05:53:42 PM 27.0519 -81.4581 304° West 445 512 20,000 -400 Level Miami Center
Wed 05:54:42 PM 27.1192 -81.5728 303° West 445 512 19,200 -1,550 Descending Miami Center
Wed 05:55:42 PM 27.1906 -81.6922 304° West 450 518 16,900 -1,900 Descending Miami Center
Wed 05:56:42 PM 27.2556 -81.8025 304° West 442 509 15,400 -1,500 Descending Miami Center
Wed 05:57:42 PM 27.3208 -81.9103 304° West 431 496 13,900 -1,450 Descending Miami Center
Wed 05:58:42 PM 27.3839 -82.0183 303° West 426 490 12,500 -1,400 Descending Miami Center
Wed 05:59:42 PM 27.4447 -82.1217 304° West 414 476 11,100 -750 Descending Miami Center
Wed 06:00:42 PM 27.5144 -82.2114 311° West 401 461 11,000 -200 Descending Miami Center
Wed 06:01:42 PM 27.5733 -82.3078 305° West 381 438 10,700 -750 Descending Miami Center
Wed 06:02:42 PM 27.6008 -82.4075 287° West 352 405 9,500 -1,700 Descending Miami Center
Wed 06:03:42 PM 27.6228 -82.4928 286° West 317 365 7,300 -2,165 Descending Miami Center
Wed 06:04:19 PM 27.6333 -82.5500 282° West 257 296 6,000 -2,412 Descending Tampa TRACON
Wed 06:05:19 PM 27.6667 -82.6167 299° West 269 310 3,400 -2,167 Descending Tampa TRACON
Wed 06:06:07 PM 27.7167 -82.6500 329° Northwest 259 298 2,100 -737 Descending Tampa TRACON
Wed 06:07:13 PM 27.7833 -82.6667 348° North 233 268 2,000 -200 Descending Tampa TRACON
Wed 06:08:07 PM 27.8333 -82.6833 344° North 167 192 1,700 -684 Descending Tampa TRACON
Wed 06:09:07 PM 27.8667 -82.6833 360° North 145 167 700 -1,000 Descending Tampa TRACON

Login

Don't have an account? Register now (free) for customized features, flight alerts, and more!